Flight Track Log - Related Links

Times and Time Zones

All times are in EDT time to prevent confusion due to time zone crossing. See the GGN7303 flight status page for this flight to view local times or setup timezone preferences in your user account.

Time Position Orientation Groundspeed Altitude Reporting Facility
EDT Latitude Longitude Course Direction KTS MPH feet Rate Location/Type
Thu 10:52:51 AM 41.9458 -72.7025 320° Northwest 145 167 1,000  Level Boston Center
Thu 10:53:56 AM 41.9831 -72.7444 320° Northwest 178 205 3,000 1,872 Climbing Boston Center
Thu 10:54:56 AM 42.0206 -72.7756 328° Northwest 178 205 4,900 1,900 Climbing Boston Center
Thu 10:55:56 AM 42.0622 -72.8008 336° Northwest 172 198 6,800 2,000 Climbing Boston Center
Thu 10:56:56 AM 42.1081 -72.8292 335° Northwest 167 192 8,900 1,950 Climbing Boston Center
Thu 10:57:56 AM 42.1475 -72.8544 335° Northwest 174 200 10,700 1,950 Climbing Boston Center
Thu 10:58:56 AM 42.1975 -72.8856 335° Northwest 174 200 12,800 1,900 Climbing Boston Center
Thu 10:59:56 AM 42.2389 -72.9139 333° Northwest 179 206 14,500 1,545 Climbing Boston Center
Thu 11:01:08 AM 42.2908 -72.9508 332° Northwest 179 206 16,200 1,636 Climbing Boston Center
Thu 11:02:08 AM 42.3492 -72.9822 338° Northwest 179 206 18,100 1,300 Climbing Boston Center
Thu 11:03:08 AM 42.3989 -73.0025 343° North 179 206 18,800 850 Climbing Boston Center
Thu 11:04:08 AM 42.4469 -73.0028 360° North 179 206 19,800 550 Climbing Boston Center
Thu 11:05:08 AM 42.5072 -73.0117 354° North 190 219 19,900 100 Climbing Boston Center
Thu 11:06:08 AM 42.5697 -73.0294 348° North 215 247 20,000 50 Climbing Boston Center
Thu 11:07:08 AM 42.6342 -73.0553 344° North 229 264 20,000 -50 Level Boston Center
Thu 11:08:08 AM 42.6989 -73.0672 352° North 235 270 19,900  Descending Boston Center
Thu 11:09:08 AM 42.7633 -73.0819 350° North 235 270 20,000  Climbing Boston Center
Thu 11:10:08 AM 42.8300 -73.0969 351° North 235 270 19,900 -50 Descending Boston Center
Thu 11:11:08 AM 42.8922 -73.1117 350° North 235 270 19,900 50 Level Boston Center
Thu 11:12:08 AM 42.9569 -73.1239 352° North 235 270 20,000  Climbing Boston Center
Thu 11:13:08 AM 43.0236 -73.1386 351° North 235 270 19,900 -50 Descending Boston Center
Thu 11:14:08 AM 43.0881 -73.1536 350° North 235 270 19,900 50 Level Boston Center
Thu 11:15:08 AM 43.1525 -73.1686 350° North 240 276 20,000 50 Climbing Boston Center
Thu 11:16:08 AM 43.2169 -73.1836 350° North 240 276 20,000 -50 Level Boston Center
Thu 11:17:08 AM 43.2836 -73.1989 351° North 240 276 19,900  Descending Boston Center
Thu 11:18:08 AM 43.3481 -73.2139 350° North 240 276 20,000 50 Climbing Boston Center
Thu 11:19:08 AM 43.4167 -73.2289 351° North 234 269 20,000  Level Boston Center
Thu 11:20:08 AM 43.4833 -73.2442 351° North 234 269 20,000  Level Boston Center
Thu 11:21:20 AM 43.5625 -73.2653 349° North 239 275 20,000 -45 Level Boston Center
Thu 11:22:20 AM 43.6269 -73.2806 350° North 239 275 19,900  Descending Boston Center
Thu 11:23:20 AM 43.6936 -73.2928 352° North 239 275 20,000 50 Climbing Boston Center
Thu 11:24:20 AM 43.7600 -73.3111 349° North 239 275 20,000  Level Boston Center
Thu 11:25:20 AM 43.8267 -73.3236 352° North 239 275 20,000 -50 Level Boston Center
Thu 11:26:20 AM 43.8933 -73.3331 354° North 239 275 19,900 -50 Descending Boston Center
Thu 11:27:20 AM 43.9556 -73.3514 348° North 239 275 19,900 50 Level Boston Center
Thu 11:28:20 AM 44.0200 -73.3697 348° North 239 275 20,000  Climbing Boston Center
Thu 11:29:20 AM 44.0803 -73.3822 352° North 239 275 19,900  Descending Boston Center
Thu 11:30:20 AM 44.1469 -73.3978 350° North 239 275 20,000  Climbing Boston Center
Thu 11:31:20 AM 44.2133 -73.4161 349° North 239 275 19,900 -50 Descending Boston Center
Thu 11:32:20 AM 44.2819 -73.4317 351° North 239 275 19,900  Level Boston Center
Thu 11:33:20 AM 44.3486 -73.4475 350° North 239 275 19,900  Level Boston Center
Thu 11:34:20 AM 44.4153 -73.4603 352° North 239 275 19,900  Level Boston Center
Thu 11:35:20 AM 44.4858 -73.4789 349° North 239 275 19,900 -150 Level Boston Center
Thu 11:36:20 AM 44.5544 -73.4947 351° North 239 275 19,600 -850 Descending Boston Center
Thu 11:37:20 AM 44.6250 -73.5106 351° North 245 282 18,200 -1,150 Descending Boston Center
Thu 11:38:20 AM 44.6978 -73.5264 351° North 255 293 17,300 -1,150 Descending Boston Center
Thu 11:39:20 AM 44.7667 -73.5336 356° North 255 293 15,900 -1,250 Descending Boston Center
Thu 11:40:20 AM 44.8414 -73.5436 355° North 255 293 14,800 -1,081 Descending Boston Center
Thu 11:41:11 AM 44.9000 -73.5333 North 260 299 13,900 -1,189 Descending Montreal Center
Thu 11:42:11 AM 44.9667 -73.5500 350° North 270 311 12,600 -1,250 Descending Montreal Center
Thu 11:43:11 AM 45.0500 -73.5500 360° North 270 311 11,400 -1,250 Descending Montreal Center
Thu 11:44:11 AM 45.1167 -73.5667 350° North 270 311 10,100 -1,400 Descending Montreal Center
Thu 11:45:11 AM 45.1667 -73.6333 317° Northwest 280 322 8,600 -1,350 Descending Montreal Center
Thu 11:46:11 AM 45.2167 -73.7333 305° West 270 311 7,400 -1,200 Descending Montreal Center
Thu 11:47:11 AM 45.2500 -73.8333 295° West 260 299 6,200 -1,650 Descending Montreal Center
Thu 11:48:11 AM 45.3000 -73.9000 317° Northwest 230 265 4,100 -1,800 Descending Montreal Center
Thu 11:49:11 AM 45.3500 -73.9000 360° North 190 219 2,600 -1,150 Descending Montreal Center
Thu 11:50:11 AM 45.3833 -73.8500 46° Northeast 160 184 1,800 -750 Descending Montreal Center
Thu 11:51:11 AM 45.4167 -73.8000 46° Northeast 140 161 1,100 -750 Descending Montreal Center
Thu 11:52:11 AM 45.4500 -73.7667 35° Northeast 130 150 300 -800 Descending Montreal Center
Thu 11:57:00 AM 45.4667 -73.7333 19° North  Level FlightAware Approximate
Thu 12:04:00 PM 45.4681 -73.7414 19° North  Level Estimated
Thu 12:05:00 PM 45.4667 -73.7333 19° North  Level FlightAware Approximate
Thu 12:06:00 PM 45.4681 -73.7414 19° North  Level Estimated

Login

Don't have an account? Register now (free) for customized features, flight alerts, and more!